sensor_id;sensor_type;location;lat;lon;timestamp;P1;durP1;ratioP1;P2;durP2;ratioP2
51184;SDS011;37248;59.350;18.050;2023-01-31T00:00:43;4.80;;;1.50;;
51184;SDS011;37248;59.350;18.050;2023-01-31T00:03:09;5.17;;;1.60;;
51184;SDS011;37248;59.350;18.050;2023-01-31T00:05:34;4.57;;;1.57;;
51184;SDS011;37248;59.350;18.050;2023-01-31T00:07:59;3.73;;;1.40;;
51184;SDS011;37248;59.350;18.050;2023-01-31T00:10:25;3.95;;;1.67;;
51184;SDS011;37248;59.350;18.050;2023-01-31T00:12:50;2.45;;;1.20;;
51184;SDS011;37248;59.350;18.050;2023-01-31T00:15:16;5.97;;;1.77;;
51184;SDS011;37248;59.350;18.050;2023-01-31T00:17:42;4.78;;;1.30;;
51184;SDS011;37248;59.350;18.050;2023-01-31T00:20:08;4.17;;;1.53;;
51184;SDS011;37248;59.350;18.050;2023-01-31T00:22:33;3.43;;;1.20;;
51184;SDS011;37248;59.350;18.050;2023-01-31T00:24:58;4.87;;;1.47;;
51184;SDS011;37248;59.350;18.050;2023-01-31T00:27:24;2.73;;;1.10;;
51184;SDS011;37248;59.350;18.050;2023-01-31T00:29:49;3.37;;;1.33;;
51184;SDS011;37248;59.350;18.050;2023-01-31T00:32:14;2.70;;;1.00;;
51184;SDS011;37248;59.350;18.050;2023-01-31T00:34:39;6.53;;;1.40;;
51184;SDS011;37248;59.350;18.050;2023-01-31T00:37:04;3.13;;;1.37;;
51184;SDS011;37248;59.350;18.050;2023-01-31T00:39:30;2.63;;;1.30;;
51184;SDS011;37248;59.350;18.050;2023-01-31T00:41:55;4.37;;;1.40;;
51184;SDS011;37248;59.350;18.050;2023-01-31T00:44:20;4.80;;;1.60;;
51184;SDS011;37248;59.350;18.050;2023-01-31T00:46:45;3.03;;;1.23;;
51184;SDS011;37248;59.350;18.050;2023-01-31T00:49:11;5.33;;;1.43;;
51184;SDS011;37248;59.350;18.050;2023-01-31T00:51:36;2.47;;;1.20;;
51184;SDS011;37248;59.350;18.050;2023-01-31T00:54:01;7.03;;;1.50;;
51184;SDS011;37248;59.350;18.050;2023-01-31T00:56:26;5.77;;;1.40;;
51184;SDS011;37248;59.350;18.050;2023-01-31T00:58:52;8.23;;;1.50;;
51184;SDS011;37248;59.350;18.050;2023-01-31T01:01:20;11.98;;;2.13;;
51184;SDS011;37248;59.350;18.050;2023-01-31T01:03:46;9.27;;;1.60;;
51184;SDS011;37248;59.350;18.050;2023-01-31T01:06:11;5.43;;;1.27;;
51184;SDS011;37248;59.350;18.050;2023-01-31T01:08:37;8.35;;;2.00;;
51184;SDS011;37248;59.350;18.050;2023-01-31T01:11:06;10.48;;;1.55;;
51184;SDS011;37248;59.350;18.050;2023-01-31T01:13:32;6.00;;;1.50;;
51184;SDS011;37248;59.350;18.050;2023-01-31T01:16:02;8.07;;;1.40;;
51184;SDS011;37248;59.350;18.050;2023-01-31T01:18:27;4.43;;;1.20;;
51184;SDS011;37248;59.350;18.050;2023-01-31T01:20:52;5.57;;;1.60;;
51184;SDS011;37248;59.350;18.050;2023-01-31T01:23:17;4.57;;;1.47;;
51184;SDS011;37248;59.350;18.050;2023-01-31T01:25:43;4.40;;;1.67;;
51184;SDS011;37248;59.350;18.050;2023-01-31T01:28:09;4.15;;;1.35;;
51184;SDS011;37248;59.350;18.050;2023-01-31T01:30:36;6.70;;;1.40;;
51184;SDS011;37248;59.350;18.050;2023-01-31T01:33:01;5.90;;;1.17;;
51184;SDS011;37248;59.350;18.050;2023-01-31T01:35:26;5.73;;;1.60;;
51184;SDS011;37248;59.350;18.050;2023-01-31T01:37:51;5.80;;;1.60;;
51184;SDS011;37248;59.350;18.050;2023-01-31T01:40:17;10.87;;;1.53;;
51184;SDS011;37248;59.350;18.050;2023-01-31T01:42:42;25.27;;;2.20;;
51184;SDS011;37248;59.350;18.050;2023-01-31T01:45:11;9.23;;;1.60;;
51184;SDS011;37248;59.350;18.050;2023-01-31T01:47:44;13.98;;;2.00;;
51184;SDS011;37248;59.350;18.050;2023-01-31T01:53:19;10.20;;;1.73;;
51184;SDS011;37248;59.350;18.050;2023-01-31T01:55:38;9.90;;;1.40;;
51184;SDS011;37248;59.350;18.050;2023-01-31T01:58:16;7.15;;;1.50;;
51184;SDS011;37248;59.350;18.050;2023-01-31T02:00:42;10.88;;;1.70;;
51184;SDS011;37248;59.350;18.050;2023-01-31T02:03:09;6.05;;;1.20;;
51184;SDS011;37248;59.350;18.050;2023-01-31T02:05:39;11.87;;;1.40;;
51184;SDS011;37248;59.350;18.050;2023-01-31T02:08:06;12.57;;;1.35;;
51184;SDS011;37248;59.350;18.050;2023-01-31T02:13:15;9.25;;;1.50;;
51184;SDS011;37248;59.350;18.050;2023-01-31T02:15:41;6.07;;;1.50;;
51184;SDS011;37248;59.350;18.050;2023-01-31T02:18:07;5.43;;;1.70;;
51184;SDS011;37248;59.350;18.050;2023-01-31T02:36:04;3.80;;;1.33;;
51184;SDS011;37248;59.350;18.050;2023-01-31T02:38:40;6.13;;;1.52;;
51184;SDS011;37248;59.350;18.050;2023-01-31T02:41:31;3.53;;;1.40;;
51184;SDS011;37248;59.350;18.050;2023-01-31T02:44:04;4.85;;;1.50;;
51184;SDS011;37248;59.350;18.050;2023-01-31T02:46:54;4.53;;;1.40;;
51184;SDS011;37248;59.350;18.050;2023-01-31T02:49:23;6.93;;;1.40;;
51184;SDS011;37248;59.350;18.050;2023-01-31T02:52:24;3.85;;;1.40;;
51184;SDS011;37248;59.350;18.050;2023-01-31T02:54:51;7.13;;;1.50;;
51184;SDS011;37248;59.350;18.050;2023-01-31T02:57:36;3.40;;;1.40;;
51184;SDS011;37248;59.350;18.050;2023-01-31T03:00:02;5.88;;;1.55;;
51184;SDS011;37248;59.350;18.050;2023-01-31T03:02:28;5.15;;;1.20;;
51184;SDS011;37248;59.350;18.050;2023-01-31T03:04:54;4.13;;;1.30;;
51184;SDS011;37248;59.350;18.050;2023-01-31T03:07:19;4.20;;;1.30;;
51184;SDS011;37248;59.350;18.050;2023-01-31T03:09:57;4.13;;;1.30;;
51184;SDS011;37248;59.350;18.050;2023-01-31T03:12:31;6.40;;;1.60;;
51184;SDS011;37248;59.350;18.050;2023-01-31T03:15:22;5.00;;;1.23;;
51184;SDS011;37248;59.350;18.050;2023-01-31T03:22:44;3.05;;;1.02;;
51184;SDS011;37248;59.350;18.050;2023-01-31T03:25:11;6.93;;;1.30;;
51184;SDS011;37248;59.350;18.050;2023-01-31T03:27:37;4.97;;;1.00;;
51184;SDS011;37248;59.350;18.050;2023-01-31T03:30:13;3.70;;;1.40;;
51184;SDS011;37248;59.350;18.050;2023-01-31T03:32:44;3.25;;;1.40;;
51184;SDS011;37248;59.350;18.050;2023-01-31T03:35:12;3.83;;;1.13;;
51184;SDS011;37248;59.350;18.050;2023-01-31T03:42:49;3.03;;;1.30;;
51184;SDS011;37248;59.350;18.050;2023-01-31T03:45:25;4.90;;;1.40;;
51184;SDS011;37248;59.350;18.050;2023-01-31T03:47:52;2.00;;;1.02;;
51184;SDS011;37248;59.350;18.050;2023-01-31T03:50:25;3.75;;;0.95;;
51184;SDS011;37248;59.350;18.050;2023-01-31T03:52:54;5.10;;;0.90;;
51184;SDS011;37248;59.350;18.050;2023-01-31T03:55:22;4.77;;;1.20;;
51184;SDS011;37248;59.350;18.050;2023-01-31T03:57:50;3.83;;;1.00;;
51184;SDS011;37248;59.350;18.050;2023-01-31T04:00:17;3.00;;;1.33;;
51184;SDS011;37248;59.350;18.050;2023-01-31T04:02:43;2.78;;;1.00;;
51184;SDS011;37248;59.350;18.050;2023-01-31T04:05:16;4.20;;;1.02;;
51184;SDS011;37248;59.350;18.050;2023-01-31T04:07:42;2.77;;;1.20;;
51184;SDS011;37248;59.350;18.050;2023-01-31T04:10:12;2.50;;;1.20;;
51184;SDS011;37248;59.350;18.050;2023-01-31T04:12:38;2.50;;;0.90;;
51184;SDS011;37248;59.350;18.050;2023-01-31T04:15:04;7.27;;;1.70;;
51184;SDS011;37248;59.350;18.050;2023-01-31T04:17:29;4.47;;;1.00;;
51184;SDS011;37248;59.350;18.050;2023-01-31T04:19:55;5.45;;;1.10;;
51184;SDS011;37248;59.350;18.050;2023-01-31T04:22:20;2.67;;;0.97;;
51184;SDS011;37248;59.350;18.050;2023-01-31T04:24:45;2.57;;;0.90;;
51184;SDS011;37248;59.350;18.050;2023-01-31T04:27:11;6.77;;;1.00;;
51184;SDS011;37248;59.350;18.050;2023-01-31T04:29:36;2.63;;;0.97;;
51184;SDS011;37248;59.350;18.050;2023-01-31T04:32:01;5.13;;;1.30;;
51184;SDS011;37248;59.350;18.050;2023-01-31T04:34:26;5.03;;;0.97;;
51184;SDS011;37248;59.350;18.050;2023-01-31T04:36:52;3.83;;;0.93;;
51184;SDS011;37248;59.350;18.050;2023-01-31T04:39:17;3.90;;;1.00;;
51184;SDS011;37248;59.350;18.050;2023-01-31T04:41:42;2.70;;;0.80;;
51184;SDS011;37248;59.350;18.050;2023-01-31T04:44:08;2.00;;;0.90;;
51184;SDS011;37248;59.350;18.050;2023-01-31T04:46:33;1.60;;;0.83;;
51184;SDS011;37248;59.350;18.050;2023-01-31T04:48:58;5.60;;;0.80;;
51184;SDS011;37248;59.350;18.050;2023-01-31T04:51:24;2.53;;;0.80;;
51184;SDS011;37248;59.350;18.050;2023-01-31T04:53:49;10.20;;;1.07;;
51184;SDS011;37248;59.350;18.050;2023-01-31T04:56:14;3.37;;;0.87;;
51184;SDS011;37248;59.350;18.050;2023-01-31T04:58:39;4.80;;;0.98;;
51184;SDS011;37248;59.350;18.050;2023-01-31T05:01:05;1.83;;;0.93;;
51184;SDS011;37248;59.350;18.050;2023-01-31T05:03:31;7.90;;;1.10;;
51184;SDS011;37248;59.350;18.050;2023-01-31T05:05:56;3.20;;;0.80;;
51184;SDS011;37248;59.350;18.050;2023-01-31T05:08:21;2.57;;;0.90;;
51184;SDS011;37248;59.350;18.050;2023-01-31T05:10:46;3.60;;;1.10;;
51184;SDS011;37248;59.350;18.050;2023-01-31T05:13:12;6.93;;;0.90;;
51184;SDS011;37248;59.350;18.050;2023-01-31T05:15:38;5.68;;;1.08;;
51184;SDS011;37248;59.350;18.050;2023-01-31T05:18:04;2.20;;;0.82;;
51184;SDS011;37248;59.350;18.050;2023-01-31T05:20:30;2.77;;;0.90;;
51184;SDS011;37248;59.350;18.050;2023-01-31T05:22:56;3.55;;;0.80;;
51184;SDS011;37248;59.350;18.050;2023-01-31T05:25:22;1.73;;;0.80;;
51184;SDS011;37248;59.350;18.050;2023-01-31T05:27:47;3.10;;;0.80;;
51184;SDS011;37248;59.350;18.050;2023-01-31T05:30:12;5.23;;;0.90;;
51184;SDS011;37248;59.350;18.050;2023-01-31T05:32:38;1.67;;;0.93;;
51184;SDS011;37248;59.350;18.050;2023-01-31T05:35:04;1.47;;;0.77;;
51184;SDS011;37248;59.350;18.050;2023-01-31T05:37:29;1.63;;;0.87;;
51184;SDS011;37248;59.350;18.050;2023-01-31T05:39:55;1.33;;;0.90;;
51184;SDS011;37248;59.350;18.050;2023-01-31T05:42:20;2.10;;;0.60;;
51184;SDS011;37248;59.350;18.050;2023-01-31T05:44:45;1.70;;;0.73;;
51184;SDS011;37248;59.350;18.050;2023-01-31T05:47:11;3.23;;;0.80;;
51184;SDS011;37248;59.350;18.050;2023-01-31T05:49:36;3.63;;;0.90;;
51184;SDS011;37248;59.350;18.050;2023-01-31T05:52:01;1.50;;;0.80;;
51184;SDS011;37248;59.350;18.050;2023-01-31T05:54:26;2.33;;;0.70;;
51184;SDS011;37248;59.350;18.050;2023-01-31T05:56:52;3.23;;;0.83;;
51184;SDS011;37248;59.350;18.050;2023-01-31T05:59:17;3.33;;;0.90;;
51184;SDS011;37248;59.350;18.050;2023-01-31T06:01:42;2.80;;;0.80;;
51184;SDS011;37248;59.350;18.050;2023-01-31T06:04:08;2.53;;;0.90;;
51184;SDS011;37248;59.350;18.050;2023-01-31T06:06:33;2.40;;;0.80;;
51184;SDS011;37248;59.350;18.050;2023-01-31T06:08:59;3.17;;;0.90;;
51184;SDS011;37248;59.350;18.050;2023-01-31T06:11:24;6.73;;;0.90;;
51184;SDS011;37248;59.350;18.050;2023-01-31T06:13:49;2.63;;;0.83;;
51184;SDS011;37248;59.350;18.050;2023-01-31T06:16:15;1.77;;;0.70;;
51184;SDS011;37248;59.350;18.050;2023-01-31T06:18:40;5.75;;;0.90;;
51184;SDS011;37248;59.350;18.050;2023-01-31T06:21:05;1.27;;;0.77;;
51184;SDS011;37248;59.350;18.050;2023-01-31T06:23:31;2.30;;;0.80;;
51184;SDS011;37248;59.350;18.050;2023-01-31T06:25:58;1.50;;;0.80;;
51184;SDS011;37248;59.350;18.050;2023-01-31T06:28:23;3.97;;;1.00;;
51184;SDS011;37248;59.350;18.050;2023-01-31T06:30:48;4.23;;;1.20;;
51184;SDS011;37248;59.350;18.050;2023-01-31T06:33:14;1.40;;;0.80;;
51184;SDS011;37248;59.350;18.050;2023-01-31T06:35:39;3.20;;;0.90;;
51184;SDS011;37248;59.350;18.050;2023-01-31T06:38:05;3.97;;;1.13;;
51184;SDS011;37248;59.350;18.050;2023-01-31T06:40:31;2.60;;;0.95;;
51184;SDS011;37248;59.350;18.050;2023-01-31T06:42:56;2.87;;;0.90;;
51184;SDS011;37248;59.350;18.050;2023-01-31T06:45:22;4.10;;;0.90;;
51184;SDS011;37248;59.350;18.050;2023-01-31T06:47:47;3.13;;;1.07;;
51184;SDS011;37248;59.350;18.050;2023-01-31T06:50:12;5.90;;;0.97;;
51184;SDS011;37248;59.350;18.050;2023-01-31T06:52:38;3.70;;;1.00;;
51184;SDS011;37248;59.350;18.050;2023-01-31T06:55:03;3.90;;;0.93;;
51184;SDS011;37248;59.350;18.050;2023-01-31T06:57:29;3.77;;;1.33;;
51184;SDS011;37248;59.350;18.050;2023-01-31T06:59:54;4.63;;;0.97;;
51184;SDS011;37248;59.350;18.050;2023-01-31T07:02:19;2.13;;;1.00;;
51184;SDS011;37248;59.350;18.050;2023-01-31T07:04:45;6.40;;;1.20;;
51184;SDS011;37248;59.350;18.050;2023-01-31T07:07:10;5.97;;;1.07;;
51184;SDS011;37248;59.350;18.050;2023-01-31T07:09:35;3.20;;;1.10;;
51184;SDS011;37248;59.350;18.050;2023-01-31T07:12:01;3.13;;;1.13;;
51184;SDS011;37248;59.350;18.050;2023-01-31T07:14:26;2.50;;;0.80;;
51184;SDS011;37248;59.350;18.050;2023-01-31T07:16:51;2.83;;;0.90;;
51184;SDS011;37248;59.350;18.050;2023-01-31T07:19:17;2.63;;;1.00;;
51184;SDS011;37248;59.350;18.050;2023-01-31T07:21:42;2.40;;;0.90;;
51184;SDS011;37248;59.350;18.050;2023-01-31T07:24:08;3.83;;;1.20;;
51184;SDS011;37248;59.350;18.050;2023-01-31T07:26:33;2.23;;;0.90;;
51184;SDS011;37248;59.350;18.050;2023-01-31T07:28:59;5.17;;;1.40;;
51184;SDS011;37248;59.350;18.050;2023-01-31T07:31:24;2.70;;;1.33;;
51184;SDS011;37248;59.350;18.050;2023-01-31T07:33:49;2.47;;;1.17;;
51184;SDS011;37248;59.350;18.050;2023-01-31T07:36:15;3.93;;;1.07;;
51184;SDS011;37248;59.350;18.050;2023-01-31T07:38:43;3.42;;;1.10;;
51184;SDS011;37248;59.350;18.050;2023-01-31T07:41:09;2.53;;;1.17;;
51184;SDS011;37248;59.350;18.050;2023-01-31T07:43:35;2.67;;;1.50;;
51184;SDS011;37248;59.350;18.050;2023-01-31T07:46:00;6.90;;;1.33;;
51184;SDS011;37248;59.350;18.050;2023-01-31T07:48:26;8.13;;;1.50;;
51184;SDS011;37248;59.350;18.050;2023-01-31T07:50:52;48.10;;;4.13;;
51184;SDS011;37248;59.350;18.050;2023-01-31T07:53:18;82.93;;;5.93;;
51184;SDS011;37248;59.350;18.050;2023-01-31T07:55:44;52.90;;;4.20;;
51184;SDS011;37248;59.350;18.050;2023-01-31T07:58:11;54.22;;;4.60;;
51184;SDS011;37248;59.350;18.050;2023-01-31T08:00:36;38.83;;;4.80;;
51184;SDS011;37248;59.350;18.050;2023-01-31T08:03:34;39.70;;;4.03;;
51184;SDS011;37248;59.350;18.050;2023-01-31T08:06:05;22.83;;;2.87;;
51184;SDS011;37248;59.350;18.050;2023-01-31T08:08:31;31.13;;;3.10;;
51184;SDS011;37248;59.350;18.050;2023-01-31T08:10:57;24.50;;;2.70;;
51184;SDS011;37248;59.350;18.050;2023-01-31T08:13:22;22.70;;;2.87;;
51184;SDS011;37248;59.350;18.050;2023-01-31T08:15:49;25.13;;;2.40;;
51184;SDS011;37248;59.350;18.050;2023-01-31T08:18:15;21.30;;;2.88;;
51184;SDS011;37248;59.350;18.050;2023-01-31T08:20:40;19.95;;;2.83;;
51184;SDS011;37248;59.350;18.050;2023-01-31T08:23:05;19.97;;;2.70;;
51184;SDS011;37248;59.350;18.050;2023-01-31T08:25:30;13.60;;;3.50;;
51184;SDS011;37248;59.350;18.050;2023-01-31T08:27:56;19.70;;;3.37;;
51184;SDS011;37248;59.350;18.050;2023-01-31T08:30:21;11.95;;;3.30;;
51184;SDS011;37248;59.350;18.050;2023-01-31T08:32:47;19.63;;;3.90;;
51184;SDS011;37248;59.350;18.050;2023-01-31T08:35:12;20.13;;;3.70;;
51184;SDS011;37248;59.350;18.050;2023-01-31T08:37:37;12.70;;;3.33;;
51184;SDS011;37248;59.350;18.050;2023-01-31T08:40:03;14.70;;;3.80;;
51184;SDS011;37248;59.350;18.050;2023-01-31T08:42:28;13.40;;;3.70;;
51184;SDS011;37248;59.350;18.050;2023-01-31T08:44:54;11.40;;;3.65;;
51184;SDS011;37248;59.350;18.050;2023-01-31T08:47:19;11.63;;;3.40;;
51184;SDS011;37248;59.350;18.050;2023-01-31T08:49:44;12.30;;;3.90;;
51184;SDS011;37248;59.350;18.050;2023-01-31T08:52:09;16.17;;;3.90;;
51184;SDS011;37248;59.350;18.050;2023-01-31T08:54:35;11.83;;;3.40;;
51184;SDS011;37248;59.350;18.050;2023-01-31T08:57:00;9.50;;;3.70;;
51184;SDS011;37248;59.350;18.050;2023-01-31T08:59:25;11.50;;;3.90;;
51184;SDS011;37248;59.350;18.050;2023-01-31T09:01:50;11.87;;;3.80;;
51184;SDS011;37248;59.350;18.050;2023-01-31T09:04:16;11.63;;;3.63;;
51184;SDS011;37248;59.350;18.050;2023-01-31T09:06:41;18.07;;;4.40;;
51184;SDS011;37248;59.350;18.050;2023-01-31T09:09:06;15.77;;;4.13;;
51184;SDS011;37248;59.350;18.050;2023-01-31T09:11:31;23.43;;;4.33;;
51184;SDS011;37248;59.350;18.050;2023-01-31T09:13:57;21.33;;;3.83;;
51184;SDS011;37248;59.350;18.050;2023-01-31T09:16:23;21.50;;;4.37;;
51184;SDS011;37248;59.350;18.050;2023-01-31T09:18:48;26.03;;;4.77;;
51184;SDS011;37248;59.350;18.050;2023-01-31T09:21:17;24.33;;;4.13;;
51184;SDS011;37248;59.350;18.050;2023-01-31T09:23:43;25.48;;;3.78;;
51184;SDS011;37248;59.350;18.050;2023-01-31T09:26:12;19.80;;;4.20;;
51184;SDS011;37248;59.350;18.050;2023-01-31T09:28:37;17.63;;;4.20;;
51184;SDS011;37248;59.350;18.050;2023-01-31T09:33:29;23.67;;;3.80;;
51184;SDS011;37248;59.350;18.050;2023-01-31T09:35:56;14.60;;;3.60;;
51184;SDS011;37248;59.350;18.050;2023-01-31T09:38:22;12.32;;;3.92;;
51184;SDS011;37248;59.350;18.050;2023-01-31T09:40:47;13.63;;;3.83;;
51184;SDS011;37248;59.350;18.050;2023-01-31T09:43:13;11.82;;;3.03;;
51184;SDS011;37248;59.350;18.050;2023-01-31T09:45:39;16.42;;;3.97;;
51184;SDS011;37248;59.350;18.050;2023-01-31T09:48:07;13.90;;;3.92;;
51184;SDS011;37248;59.350;18.050;2023-01-31T09:50:39;9.93;;;3.50;;
51184;SDS011;37248;59.350;18.050;2023-01-31T09:53:08;11.93;;;3.83;;
51184;SDS011;37248;59.350;18.050;2023-01-31T09:55:45;14.17;;;4.00;;
51184;SDS011;37248;59.350;18.050;2023-01-31T10:00:42;13.33;;;3.43;;
51184;SDS011;37248;59.350;18.050;2023-01-31T10:05:39;14.30;;;3.80;;
51184;SDS011;37248;59.350;18.050;2023-01-31T10:08:10;13.67;;;3.37;;
51184;SDS011;37248;59.350;18.050;2023-01-31T10:10:38;8.15;;;2.88;;
51184;SDS011;37248;59.350;18.050;2023-01-31T10:13:42;8.25;;;3.20;;
51184;SDS011;37248;59.350;18.050;2023-01-31T10:18:27;8.37;;;3.03;;
51184;SDS011;37248;59.350;18.050;2023-01-31T10:20:58;10.50;;;2.70;;
51184;SDS011;37248;59.350;18.050;2023-01-31T10:28:38;9.98;;;2.38;;
51184;SDS011;37248;59.350;18.050;2023-01-31T10:44:49;6.93;;;2.60;;
51184;SDS011;37248;59.350;18.050;2023-01-31T10:47:16;6.47;;;2.78;;
51184;SDS011;37248;59.350;18.050;2023-01-31T10:49:45;7.13;;;2.33;;
51184;SDS011;37248;59.350;18.050;2023-01-31T10:52:15;5.40;;;2.35;;
51184;SDS011;37248;59.350;18.050;2023-01-31T10:57:11;6.03;;;2.80;;
51184;SDS011;37248;59.350;18.050;2023-01-31T10:59:36;8.00;;;2.30;;
51184;SDS011;37248;59.350;18.050;2023-01-31T11:02:02;7.00;;;2.53;;
51184;SDS011;37248;59.350;18.050;2023-01-31T11:04:33;5.50;;;2.22;;
51184;SDS011;37248;59.350;18.050;2023-01-31T11:07:00;6.10;;;2.33;;
51184;SDS011;37248;59.350;18.050;2023-01-31T11:09:27;5.50;;;2.25;;
51184;SDS011;37248;59.350;18.050;2023-01-31T11:11:54;5.63;;;2.47;;
51184;SDS011;37248;59.350;18.050;2023-01-31T11:14:20;6.32;;;2.25;;
51184;SDS011;37248;59.350;18.050;2023-01-31T11:16:45;5.85;;;2.17;;
51184;SDS011;37248;59.350;18.050;2023-01-31T11:19:16;4.13;;;2.08;;
51184;SDS011;37248;59.350;18.050;2023-01-31T11:21:44;8.85;;;2.33;;
51184;SDS011;37248;59.350;18.050;2023-01-31T11:24:21;5.83;;;2.00;;
51184;SDS011;37248;59.350;18.050;2023-01-31T11:27:04;5.15;;;2.33;;
51184;SDS011;37248;59.350;18.050;2023-01-31T11:29:40;5.90;;;2.40;;
51184;SDS011;37248;59.350;18.050;2023-01-31T11:32:19;5.07;;;2.42;;
51184;SDS011;37248;59.350;18.050;2023-01-31T11:37:22;4.82;;;2.05;;
51184;SDS011;37248;59.350;18.050;2023-01-31T11:40:01;5.87;;;2.00;;
51184;SDS011;37248;59.350;18.050;2023-01-31T11:42:26;4.47;;;2.00;;
51184;SDS011;37248;59.350;18.050;2023-01-31T11:47:21;5.47;;;2.10;;
51184;SDS011;37248;59.350;18.050;2023-01-31T11:49:47;6.03;;;2.42;;
51184;SDS011;37248;59.350;18.050;2023-01-31T11:52:15;4.93;;;2.00;;
51184;SDS011;37248;59.350;18.050;2023-01-31T11:54:42;4.87;;;2.10;;
51184;SDS011;37248;59.350;18.050;2023-01-31T11:57:19;4.00;;;1.60;;
51184;SDS011;37248;59.350;18.050;2023-01-31T11:59:46;4.60;;;1.80;;
51184;SDS011;37248;59.350;18.050;2023-01-31T12:02:19;3.28;;;1.67;;
51184;SDS011;37248;59.350;18.050;2023-01-31T12:04:47;6.88;;;2.05;;
51184;SDS011;37248;59.350;18.050;2023-01-31T12:09:46;3.78;;;1.80;;
51184;SDS011;37248;59.350;18.050;2023-01-31T12:14:46;3.33;;;1.50;;
51184;SDS011;37248;59.350;18.050;2023-01-31T12:17:12;5.43;;;1.80;;
51184;SDS011;37248;59.350;18.050;2023-01-31T12:25:20;2.37;;;1.40;;
51184;SDS011;37248;59.350;18.050;2023-01-31T12:27:35;2.67;;;1.40;;
51184;SDS011;37248;59.350;18.050;2023-01-31T12:37:49;3.23;;;1.23;;
51184;SDS011;37248;59.350;18.050;2023-01-31T12:40:21;3.58;;;1.73;;
51184;SDS011;37248;59.350;18.050;2023-01-31T12:42:53;3.03;;;1.40;;
51184;SDS011;37248;59.350;18.050;2023-01-31T12:50:41;4.82;;;1.33;;
51184;SDS011;37248;59.350;18.050;2023-01-31T12:55:42;2.67;;;1.17;;
51184;SDS011;37248;59.350;18.050;2023-01-31T13:01:03;2.30;;;1.15;;
51184;SDS011;37248;59.350;18.050;2023-01-31T13:03:31;3.08;;;1.45;;
51184;SDS011;37248;59.350;18.050;2023-01-31T13:08:24;2.47;;;1.03;;
51184;SDS011;37248;59.350;18.050;2023-01-31T13:13:48;3.05;;;1.00;;
51184;SDS011;37248;59.350;18.050;2023-01-31T13:16:15;4.40;;;1.23;;
51184;SDS011;37248;59.350;18.050;2023-01-31T13:18:42;2.83;;;0.88;;
51184;SDS011;37248;59.350;18.050;2023-01-31T13:21:11;2.27;;;0.90;;
51184;SDS011;37248;59.350;18.050;2023-01-31T13:23:49;2.63;;;1.03;;
51184;SDS011;37248;59.350;18.050;2023-01-31T13:26:19;2.03;;;0.90;;
51184;SDS011;37248;59.350;18.050;2023-01-31T13:28:50;1.65;;;0.95;;
51184;SDS011;37248;59.350;18.050;2023-01-31T13:31:21;3.20;;;1.10;;
51184;SDS011;37248;59.350;18.050;2023-01-31T13:33:56;2.00;;;0.80;;
51184;SDS011;37248;59.350;18.050;2023-01-31T13:36:41;1.33;;;0.63;;
51184;SDS011;37248;59.350;18.050;2023-01-31T13:39:14;1.60;;;0.85;;
51184;SDS011;37248;59.350;18.050;2023-01-31T13:41:42;3.30;;;0.80;;
51184;SDS011;37248;59.350;18.050;2023-01-31T13:44:07;2.30;;;1.00;;
51184;SDS011;37248;59.350;18.050;2023-01-31T13:46:41;3.00;;;1.00;;
51184;SDS011;37248;59.350;18.050;2023-01-31T13:49:12;1.63;;;0.80;;
51184;SDS011;37248;59.350;18.050;2023-01-31T13:51:41;3.78;;;0.77;;
51184;SDS011;37248;59.350;18.050;2023-01-31T13:56:53;6.20;;;0.93;;
51184;SDS011;37248;59.350;18.050;2023-01-31T13:59:20;2.55;;;0.88;;
51184;SDS011;37248;59.350;18.050;2023-01-31T14:01:46;3.10;;;1.10;;
51184;SDS011;37248;59.350;18.050;2023-01-31T14:09:23;1.75;;;0.70;;
51184;SDS011;37248;59.350;18.050;2023-01-31T14:11:48;2.05;;;1.10;;
51184;SDS011;37248;59.350;18.050;2023-01-31T14:17:07;2.22;;;0.70;;
51184;SDS011;37248;59.350;18.050;2023-01-31T14:22:13;2.85;;;0.90;;
51184;SDS011;37248;59.350;18.050;2023-01-31T14:27:16;2.63;;;0.60;;
51184;SDS011;37248;59.350;18.050;2023-01-31T14:29:42;2.65;;;0.60;;
51184;SDS011;37248;59.350;18.050;2023-01-31T14:32:12;3.33;;;0.80;;
51184;SDS011;37248;59.350;18.050;2023-01-31T14:34:38;4.95;;;0.85;;
51184;SDS011;37248;59.350;18.050;2023-01-31T14:55:00;4.10;;;0.65;;
51184;SDS011;37248;59.350;18.050;2023-01-31T14:57:29;3.13;;;0.80;;
51184;SDS011;37248;59.350;18.050;2023-01-31T14:59:57;3.03;;;0.70;;
51184;SDS011;37248;59.350;18.050;2023-01-31T15:07:27;6.80;;;0.80;;
51184;SDS011;37248;59.350;18.050;2023-01-31T15:09:53;8.98;;;1.58;;
51184;SDS011;37248;59.350;18.050;2023-01-31T15:15:09;9.98;;;1.05;;
51184;SDS011;37248;59.350;18.050;2023-01-31T15:17:41;5.97;;;0.90;;
51184;SDS011;37248;59.350;18.050;2023-01-31T15:20:17;7.17;;;0.90;;
51184;SDS011;37248;59.350;18.050;2023-01-31T15:22:42;4.57;;;1.33;;
51184;SDS011;37248;59.350;18.050;2023-01-31T15:25:17;3.90;;;0.80;;
51184;SDS011;37248;59.350;18.050;2023-01-31T15:27:44;8.13;;;1.10;;
51184;SDS011;37248;59.350;18.050;2023-01-31T15:30:19;5.25;;;0.82;;
51184;SDS011;37248;59.350;18.050;2023-01-31T15:35:30;4.88;;;0.65;;
51184;SDS011;37248;59.350;18.050;2023-01-31T15:37:59;8.27;;;0.80;;
51184;SDS011;37248;59.350;18.050;2023-01-31T15:40:26;5.75;;;1.05;;
51184;SDS011;37248;59.350;18.050;2023-01-31T15:42:52;5.63;;;0.80;;
51184;SDS011;37248;59.350;18.050;2023-01-31T15:45:19;11.10;;;0.93;;
51184;SDS011;37248;59.350;18.050;2023-01-31T15:50:30;12.32;;;0.98;;
51184;SDS011;37248;59.350;18.050;2023-01-31T15:52:55;9.27;;;1.25;;
51184;SDS011;37248;59.350;18.050;2023-01-31T15:55:21;7.85;;;0.98;;
51184;SDS011;37248;59.350;18.050;2023-01-31T16:00:22;6.77;;;0.97;;
51184;SDS011;37248;59.350;18.050;2023-01-31T16:02:49;6.60;;;1.67;;
51184;SDS011;37248;59.350;18.050;2023-01-31T16:05:23;12.37;;;1.50;;
51184;SDS011;37248;59.350;18.050;2023-01-31T16:07:49;10.77;;;1.20;;
51184;SDS011;37248;59.350;18.050;2023-01-31T16:10:14;7.45;;;1.33;;
51184;SDS011;37248;59.350;18.050;2023-01-31T16:12:41;6.60;;;1.50;;
51184;SDS011;37248;59.350;18.050;2023-01-31T16:15:13;6.40;;;1.00;;
51184;SDS011;37248;59.350;18.050;2023-01-31T16:17:40;10.20;;;1.73;;
51184;SDS011;37248;59.350;18.050;2023-01-31T16:20:05;7.80;;;1.50;;
51184;SDS011;37248;59.350;18.050;2023-01-31T16:22:31;14.48;;;1.80;;
51184;SDS011;37248;59.350;18.050;2023-01-31T16:24:57;11.93;;;1.27;;
51184;SDS011;37248;59.350;18.050;2023-01-31T16:27:23;10.55;;;1.45;;
51184;SDS011;37248;59.350;18.050;2023-01-31T16:29:50;14.45;;;1.25;;
51184;SDS011;37248;59.350;18.050;2023-01-31T16:34:49;8.35;;;1.27;;
51184;SDS011;37248;59.350;18.050;2023-01-31T16:37:15;7.97;;;1.33;;
51184;SDS011;37248;59.350;18.050;2023-01-31T16:39:51;9.38;;;1.30;;
51184;SDS011;37248;59.350;18.050;2023-01-31T16:42:23;8.18;;;1.40;;
51184;SDS011;37248;59.350;18.050;2023-01-31T16:44:50;5.45;;;1.40;;
51184;SDS011;37248;59.350;18.050;2023-01-31T16:52:40;8.70;;;1.20;;
51184;SDS011;37248;59.350;18.050;2023-01-31T16:55:10;8.03;;;1.40;;
51184;SDS011;37248;59.350;18.050;2023-01-31T16:57:36;4.65;;;1.10;;
51184;SDS011;37248;59.350;18.050;2023-01-31T17:00:05;4.15;;;1.00;;
51184;SDS011;37248;59.350;18.050;2023-01-31T17:02:32;9.02;;;1.70;;
51184;SDS011;37248;59.350;18.050;2023-01-31T17:05:15;10.23;;;1.77;;
51184;SDS011;37248;59.350;18.050;2023-01-31T17:07:42;12.27;;;1.60;;
51184;SDS011;37248;59.350;18.050;2023-01-31T17:10:08;14.07;;;1.77;;
51184;SDS011;37248;59.350;18.050;2023-01-31T17:12:41;12.30;;;1.47;;